sensor_id;sensor_type;location;lat;lon;timestamp;pressure;altitude;pressure_sealevel;temperature;humidity
49935;BME280;39898;41.762;26.200;2023-02-01T00:00:58;100967.44;;;3.31;100.00
49935;BME280;39898;41.762;26.200;2023-02-01T00:03:25;100975.28;;;3.34;100.00
49935;BME280;39898;41.762;26.200;2023-02-01T00:05:56;100971.69;;;3.26;100.00
49935;BME280;39898;41.762;26.200;2023-02-01T00:08:23;100977.78;;;3.29;100.00
49935;BME280;39898;41.762;26.200;2023-02-01T00:10:57;100971.78;;;3.30;100.00
49935;BME280;39898;41.762;26.200;2023-02-01T00:13:23;100968.22;;;3.27;100.00
49935;BME280;39898;41.762;26.200;2023-02-01T00:15:50;100967.38;;;3.26;100.00
49935;BME280;39898;41.762;26.200;2023-02-01T00:18:16;100963.03;;;3.27;100.00
49935;BME280;39898;41.762;26.200;2023-02-01T00:20:46;100962.91;;;3.19;100.00
49935;BME280;39898;41.762;26.200;2023-02-01T00:23:13;100967.06;;;3.10;100.00
49935;BME280;39898;41.762;26.200;2023-02-01T00:25:39;100962.03;;;3.17;100.00
49935;BME280;39898;41.762;26.200;2023-02-01T00:28:06;100957.00;;;3.26;100.00
49935;BME280;39898;41.762;26.200;2023-02-01T00:30:32;100953.56;;;3.27;100.00
49935;BME280;39898;41.762;26.200;2023-02-01T00:32:59;100951.78;;;3.25;100.00
49935;BME280;39898;41.762;26.200;2023-02-01T00:35:25;100951.00;;;3.30;100.00
49935;BME280;39898;41.762;26.200;2023-02-01T00:37:52;100950.91;;;3.24;100.00
49935;BME280;39898;41.762;26.200;2023-02-01T00:40:18;100945.66;;;3.21;100.00
49935;BME280;39898;41.762;26.200;2023-02-01T00:42:45;100949.00;;;3.14;100.00
49935;BME280;39898;41.762;26.200;2023-02-01T00:45:12;100948.09;;;3.14;100.00
49935;BME280;39898;41.762;26.200;2023-02-01T00:47:38;100943.78;;;3.13;100.00
49935;BME280;39898;41.762;26.200;2023-02-01T00:50:05;100941.16;;;3.11;100.00
49935;BME280;39898;41.762;26.200;2023-02-01T00:52:32;100947.19;;;3.10;100.00
49935;BME280;39898;41.762;26.200;2023-02-01T00:54:58;100947.88;;;3.00;100.00
49935;BME280;39898;41.762;26.200;2023-02-01T00:57:25;100953.84;;;2.95;100.00
49935;BME280;39898;41.762;26.200;2023-02-01T00:59:53;100955.69;;;3.02;100.00
49935;BME280;39898;41.762;26.200;2023-02-01T01:02:19;100965.09;;;2.97;100.00
49935;BME280;39898;41.762;26.200;2023-02-01T01:04:46;100961.59;;;2.93;100.00
49935;BME280;39898;41.762;26.200;2023-02-01T01:07:14;100964.09;;;2.89;100.00
49935;BME280;39898;41.762;26.200;2023-02-01T01:09:40;100962.31;;;2.88;100.00
49935;BME280;39898;41.762;26.200;2023-02-01T01:12:07;100960.50;;;2.82;100.00
49935;BME280;39898;41.762;26.200;2023-02-01T01:14:33;100956.31;;;2.89;100.00
49935;BME280;39898;41.762;26.200;2023-02-01T01:17:00;100958.78;;;2.83;100.00
49935;BME280;39898;41.762;26.200;2023-02-01T01:19:26;100955.19;;;2.76;100.00
49935;BME280;39898;41.762;26.200;2023-02-01T01:21:53;100957.66;;;2.69;100.00
49935;BME280;39898;41.762;26.200;2023-02-01T01:24:19;100952.41;;;2.66;100.00
49935;BME280;39898;41.762;26.200;2023-02-01T01:26:46;100951.44;;;2.62;100.00
49935;BME280;39898;41.762;26.200;2023-02-01T01:29:12;100957.69;;;2.70;100.00
49935;BME280;39898;41.762;26.200;2023-02-01T01:31:39;100964.59;;;2.71;100.00
49935;BME280;39898;41.762;26.200;2023-02-01T01:34:06;100963.72;;;2.71;100.00
49935;BME280;39898;41.762;26.200;2023-02-01T01:36:32;100961.34;;;2.81;100.00
49935;BME280;39898;41.762;26.200;2023-02-01T01:38:59;100953.31;;;2.69;100.00
49935;BME280;39898;41.762;26.200;2023-02-01T01:41:28;100962.78;;;2.66;100.00
49935;BME280;39898;41.762;26.200;2023-02-01T01:46:26;100955.88;;;2.68;100.00
49935;BME280;39898;41.762;26.200;2023-02-01T01:48:55;100958.38;;;2.63;100.00
49935;BME280;39898;41.762;26.200;2023-02-01T01:51:23;100951.53;;;2.67;100.00
49935;BME280;39898;41.762;26.200;2023-02-01T01:53:56;100955.78;;;2.63;100.00
49935;BME280;39898;41.762;26.200;2023-02-01T01:56:25;100949.03;;;2.70;100.00
49935;BME280;39898;41.762;26.200;2023-02-01T01:58:52;100957.59;;;2.66;100.00
49935;BME280;39898;41.762;26.200;2023-02-01T02:01:19;100967.88;;;2.63;100.00
49935;BME280;39898;41.762;26.200;2023-02-01T02:03:46;100972.00;;;2.53;100.00
49935;BME280;39898;41.762;26.200;2023-02-01T02:06:23;100974.63;;;2.54;100.00
49935;BME280;39898;41.762;26.200;2023-02-01T02:08:53;100972.13;;;2.59;100.00
49935;BME280;39898;41.762;26.200;2023-02-01T02:11:19;100973.03;;;2.61;100.00
49935;BME280;39898;41.762;26.200;2023-02-01T02:13:47;100971.22;;;2.56;100.00
49935;BME280;39898;41.762;26.200;2023-02-01T02:34:21;100976.53;;;2.62;100.00
49935;BME280;39898;41.762;26.200;2023-02-01T02:36:55;100970.38;;;2.58;100.00
49935;BME280;39898;41.762;26.200;2023-02-01T02:44:48;100966.06;;;2.57;100.00
49935;BME280;39898;41.762;26.200;2023-02-01T02:56:11;100971.75;;;2.41;100.00
49935;BME280;39898;41.762;26.200;2023-02-01T02:58:57;100972.47;;;2.34;100.00
49935;BME280;39898;41.762;26.200;2023-02-01T03:01:43;100974.28;;;2.38;100.00
49935;BME280;39898;41.762;26.200;2023-02-01T03:04:28;100971.69;;;2.38;100.00
49935;BME280;39898;41.762;26.200;2023-02-01T03:06:56;100973.22;;;2.30;100.00
49935;BME280;39898;41.762;26.200;2023-02-01T03:09:26;100973.34;;;2.34;100.00
49935;BME280;39898;41.762;26.200;2023-02-01T03:11:58;100970.50;;;2.22;100.00
49935;BME280;39898;41.762;26.200;2023-02-01T03:14:46;100971.41;;;2.26;100.00
49935;BME280;39898;41.762;26.200;2023-02-01T03:17:14;100978.25;;;2.21;100.00
49935;BME280;39898;41.762;26.200;2023-02-01T03:19:43;100983.44;;;2.22;100.00
49935;BME280;39898;41.762;26.200;2023-02-01T03:22:17;100982.59;;;2.23;100.00
49935;BME280;39898;41.762;26.200;2023-02-01T03:24:50;100978.97;;;2.15;100.00
49935;BME280;39898;41.762;26.200;2023-02-01T03:30:02;100985.41;;;2.32;100.00
49935;BME280;39898;41.762;26.200;2023-02-01T03:32:32;100990.38;;;2.23;100.00
49935;BME280;39898;41.762;26.200;2023-02-01T03:35:19;101002.50;;;2.26;100.00
49935;BME280;39898;41.762;26.200;2023-02-01T03:37:47;100999.03;;;2.24;100.00
49935;BME280;39898;41.762;26.200;2023-02-01T03:40:15;100997.28;;;2.24;100.00
49935;BME280;39898;41.762;26.200;2023-02-01T03:42:47;101002.50;;;2.26;100.00
49935;BME280;39898;41.762;26.200;2023-02-01T03:45:27;101003.09;;;2.14;100.00
49935;BME280;39898;41.762;26.200;2023-02-01T03:47:55;101002.25;;;2.14;100.00
49935;BME280;39898;41.762;26.200;2023-02-01T03:50:23;101003.84;;;2.09;100.00
49935;BME280;39898;41.762;26.200;2023-02-01T03:53:11;100993.28;;;2.00;100.00
49935;BME280;39898;41.762;26.200;2023-02-01T03:55:41;101000.94;;;1.94;100.00
49935;BME280;39898;41.762;26.200;2023-02-01T03:58:12;101009.59;;;1.96;100.00
49935;BME280;39898;41.762;26.200;2023-02-01T04:00:39;101011.25;;;1.92;100.00
49935;BME280;39898;41.762;26.200;2023-02-01T04:03:06;101012.09;;;1.93;100.00
49935;BME280;39898;41.762;26.200;2023-02-01T04:05:33;101016.31;;;1.88;100.00
49935;BME280;39898;41.762;26.200;2023-02-01T04:08:00;101021.56;;;1.91;100.00
49935;BME280;39898;41.762;26.200;2023-02-01T04:10:27;101026.09;;;1.99;100.00
49935;BME280;39898;41.762;26.200;2023-02-01T04:12:54;101028.69;;;1.99;100.00
49935;BME280;39898;41.762;26.200;2023-02-01T04:15:20;101029.50;;;1.98;100.00
49935;BME280;39898;41.762;26.200;2023-02-01T04:17:47;101031.25;;;1.99;100.00
49935;BME280;39898;41.762;26.200;2023-02-01T04:20:13;101031.19;;;1.96;100.00
49935;BME280;39898;41.762;26.200;2023-02-01T04:22:40;101034.66;;;1.98;100.00
49935;BME280;39898;41.762;26.200;2023-02-01T04:25:06;101039.81;;;1.97;100.00
49935;BME280;39898;41.762;26.200;2023-02-01T04:27:34;101045.88;;;1.97;100.00
49935;BME280;39898;41.762;26.200;2023-02-01T04:30:02;101038.94;;;1.96;100.00
49935;BME280;39898;41.762;26.200;2023-02-01T04:32:28;101041.66;;;2.01;100.00
49935;BME280;39898;41.762;26.200;2023-02-01T04:34:55;101046.84;;;2.01;100.00
49935;BME280;39898;41.762;26.200;2023-02-01T04:37:21;101044.28;;;2.02;100.00
49935;BME280;39898;41.762;26.200;2023-02-01T04:39:48;101037.41;;;2.04;100.00
49935;BME280;39898;41.762;26.200;2023-02-01T04:42:14;101041.78;;;2.05;100.00
49935;BME280;39898;41.762;26.200;2023-02-01T04:44:41;101038.28;;;2.05;100.00
49935;BME280;39898;41.762;26.200;2023-02-01T04:47:08;101032.19;;;2.03;100.00
49935;BME280;39898;41.762;26.200;2023-02-01T04:49:35;101040.03;;;2.06;100.00
49935;BME280;39898;41.762;26.200;2023-02-01T04:52:02;101032.34;;;2.09;100.00
49935;BME280;39898;41.762;26.200;2023-02-01T04:54:29;101037.78;;;2.19;100.00
49935;BME280;39898;41.762;26.200;2023-02-01T04:56:55;101031.91;;;2.28;98.85
49935;BME280;39898;41.762;26.200;2023-02-01T04:59:22;101040.59;;;2.28;97.87
49935;BME280;39898;41.762;26.200;2023-02-01T05:01:48;101044.06;;;2.30;97.52
49935;BME280;39898;41.762;26.200;2023-02-01T05:04:15;101044.88;;;2.28;97.10
49935;BME280;39898;41.762;26.200;2023-02-01T05:06:44;101034.56;;;2.29;96.95
49935;BME280;39898;41.762;26.200;2023-02-01T05:09:11;101043.16;;;2.28;97.18
49935;BME280;39898;41.762;26.200;2023-02-01T05:11:37;101054.34;;;2.27;97.21
49935;BME280;39898;41.762;26.200;2023-02-01T05:14:23;101061.16;;;2.22;96.63
49935;BME280;39898;41.762;26.200;2023-02-01T05:16:49;101059.53;;;2.27;96.93
49935;BME280;39898;41.762;26.200;2023-02-01T05:19:16;101059.47;;;2.24;97.13
49935;BME280;39898;41.762;26.200;2023-02-01T05:21:42;101062.94;;;2.25;96.51
49935;BME280;39898;41.762;26.200;2023-02-01T05:24:09;101063.69;;;2.19;96.67
49935;BME280;39898;41.762;26.200;2023-02-01T05:26:36;101072.19;;;2.14;96.67
49935;BME280;39898;41.762;26.200;2023-02-01T05:29:03;101068.78;;;2.16;97.32
49935;BME280;39898;41.762;26.200;2023-02-01T05:31:30;101065.28;;;2.14;96.90
49935;BME280;39898;41.762;26.200;2023-02-01T05:33:56;101072.25;;;2.17;97.17
49935;BME280;39898;41.762;26.200;2023-02-01T05:36:23;101082.38;;;2.08;96.80
49935;BME280;39898;41.762;26.200;2023-02-01T05:38:49;101074.38;;;1.99;97.13
49935;BME280;39898;41.762;26.200;2023-02-01T05:41:16;101082.19;;;2.00;96.94
49935;BME280;39898;41.762;26.200;2023-02-01T05:43:42;101071.72;;;1.96;96.76
49935;BME280;39898;41.762;26.200;2023-02-01T05:46:09;101078.56;;;1.92;96.76
49935;BME280;39898;41.762;26.200;2023-02-01T05:48:39;101077.72;;;1.93;96.75
49935;BME280;39898;41.762;26.200;2023-02-01T05:51:06;101085.53;;;1.95;97.18
49935;BME280;39898;41.762;26.200;2023-02-01T05:53:33;101081.28;;;1.98;96.54
49935;BME280;39898;41.762;26.200;2023-02-01T05:55:59;101086.53;;;2.01;95.91
49935;BME280;39898;41.762;26.200;2023-02-01T05:58:26;101090.91;;;2.02;95.99
49935;BME280;39898;41.762;26.200;2023-02-01T06:00:52;101089.88;;;1.97;96.10
49935;BME280;39898;41.762;26.200;2023-02-01T06:03:19;101084.66;;;1.96;95.71
49935;BME280;39898;41.762;26.200;2023-02-01T06:05:46;101081.31;;;2.00;95.09
49935;BME280;39898;41.762;26.200;2023-02-01T06:08:13;101089.88;;;1.97;94.97
49935;BME280;39898;41.762;26.200;2023-02-01T06:10:40;101095.06;;;1.97;94.79
49935;BME280;39898;41.762;26.200;2023-02-01T06:13:06;101089.13;;;2.01;95.02
49935;BME280;39898;41.762;26.200;2023-02-01T06:15:33;101090.91;;;2.02;95.21
49935;BME280;39898;41.762;26.200;2023-02-01T06:18:00;101089.28;;;2.07;94.85
49935;BME280;39898;41.762;26.200;2023-02-01T06:20:27;101088.72;;;2.20;94.11
49935;BME280;39898;41.762;26.200;2023-02-01T06:22:53;101094.97;;;2.30;93.53
49935;BME280;39898;41.762;26.200;2023-02-01T06:25:19;101092.56;;;2.37;93.18
49935;BME280;39898;41.762;26.200;2023-02-01T06:27:47;101091.09;;;2.47;92.87
49935;BME280;39898;41.762;26.200;2023-02-01T06:30:14;101092.13;;;2.55;92.69
49935;BME280;39898;41.762;26.200;2023-02-01T06:32:41;101088.72;;;2.58;92.59
49935;BME280;39898;41.762;26.200;2023-02-01T06:35:08;101094.91;;;2.63;92.60
49935;BME280;39898;41.762;26.200;2023-02-01T06:37:37;101088.94;;;2.67;92.31
49935;BME280;39898;41.762;26.200;2023-02-01T06:40:04;101086.59;;;2.79;92.48
49935;BME280;39898;41.762;26.200;2023-02-01T06:42:30;101097.09;;;2.83;91.85
49935;BME280;39898;41.762;26.200;2023-02-01T06:44:57;101086.84;;;2.91;91.45
49935;BME280;39898;41.762;26.200;2023-02-01T06:47:23;101085.06;;;2.88;90.25
49935;BME280;39898;41.762;26.200;2023-02-01T06:49:50;101090.31;;;2.91;90.60
49935;BME280;39898;41.762;26.200;2023-02-01T06:52:16;101097.19;;;2.89;90.40
49935;BME280;39898;41.762;26.200;2023-02-01T06:54:43;101093.53;;;2.80;90.18
49935;BME280;39898;41.762;26.200;2023-02-01T06:57:09;101100.44;;;2.79;90.70
49935;BME280;39898;41.762;26.200;2023-02-01T06:59:36;101103.94;;;2.81;90.22
49935;BME280;39898;41.762;26.200;2023-02-01T07:02:02;101107.50;;;2.86;90.45
49935;BME280;39898;41.762;26.200;2023-02-01T07:04:29;101099.06;;;2.96;90.02
49935;BME280;39898;41.762;26.200;2023-02-01T07:06:56;101101.84;;;3.05;89.77
49935;BME280;39898;41.762;26.200;2023-02-01T07:09:22;101105.47;;;3.12;89.15
49935;BME280;39898;41.762;26.200;2023-02-01T07:11:49;101104.78;;;3.20;88.61
49935;BME280;39898;41.762;26.200;2023-02-01T07:14:15;101102.19;;;3.20;88.66
49935;BME280;39898;41.762;26.200;2023-02-01T07:16:42;101104.88;;;3.25;88.94
49935;BME280;39898;41.762;26.200;2023-02-01T07:19:08;101100.50;;;3.24;88.33
49935;BME280;39898;41.762;26.200;2023-02-01T07:21:35;101109.03;;;3.18;88.36
49935;BME280;39898;41.762;26.200;2023-02-01T07:24:02;101110.84;;;3.22;88.21
49935;BME280;39898;41.762;26.200;2023-02-01T07:26:28;101106.53;;;3.23;88.37
49935;BME280;39898;41.762;26.200;2023-02-01T07:28:55;101122.22;;;3.27;88.63
49935;BME280;39898;41.762;26.200;2023-02-01T07:31:22;101127.63;;;3.38;88.99
49935;BME280;39898;41.762;26.200;2023-02-01T07:33:49;101123.66;;;3.56;87.29
49935;BME280;39898;41.762;26.200;2023-02-01T07:36:18;101126.38;;;3.64;85.66
49935;BME280;39898;41.762;26.200;2023-02-01T07:38:45;101124.19;;;3.86;86.05
49935;BME280;39898;41.762;26.200;2023-02-01T07:41:13;101128.75;;;3.99;85.06
49935;BME280;39898;41.762;26.200;2023-02-01T07:43:39;101136.63;;;4.05;85.00
49935;BME280;39898;41.762;26.200;2023-02-01T07:46:06;101129.13;;;4.20;84.75
49935;BME280;39898;41.762;26.200;2023-02-01T07:48:33;101130.88;;;4.23;83.94
49935;BME280;39898;41.762;26.200;2023-02-01T07:51:01;101138.84;;;4.33;83.59
49935;BME280;39898;41.762;26.200;2023-02-01T07:53:28;101127.97;;;4.57;82.96
49935;BME280;39898;41.762;26.200;2023-02-01T07:55:55;101128.09;;;4.67;79.68
49935;BME280;39898;41.762;26.200;2023-02-01T07:58:25;101130.81;;;4.73;78.49
49935;BME280;39898;41.762;26.200;2023-02-01T08:00:52;101126.69;;;4.90;77.96
49935;BME280;39898;41.762;26.200;2023-02-01T08:03:37;101117.34;;;5.04;77.20
49935;BME280;39898;41.762;26.200;2023-02-01T08:06:04;101128.56;;;4.99;76.52
49935;BME280;39898;41.762;26.200;2023-02-01T08:08:30;101127.66;;;4.95;75.32
49935;BME280;39898;41.762;26.200;2023-02-01T08:10:58;101132.25;;;5.18;75.34
49935;BME280;39898;41.762;26.200;2023-02-01T08:13:25;101132.22;;;5.15;73.57
49935;BME280;39898;41.762;26.200;2023-02-01T08:15:51;101133.28;;;5.27;74.21
49935;BME280;39898;41.762;26.200;2023-02-01T08:18:18;101129.84;;;5.31;73.61
49935;BME280;39898;41.762;26.200;2023-02-01T08:20:44;101127.44;;;5.51;74.52
49935;BME280;39898;41.762;26.200;2023-02-01T08:23:12;101134.47;;;5.55;73.64
49935;BME280;39898;41.762;26.200;2023-02-01T08:25:38;101133.72;;;5.68;72.85
49935;BME280;39898;41.762;26.200;2023-02-01T08:28:08;101136.44;;;5.78;72.06
49935;BME280;39898;41.762;26.200;2023-02-01T08:30:36;101135.56;;;5.75;73.10
49935;BME280;39898;41.762;26.200;2023-02-01T08:33:02;101154.91;;;5.96;72.79
49935;BME280;39898;41.762;26.200;2023-02-01T08:35:29;101150.59;;;6.00;71.86
49935;BME280;39898;41.762;26.200;2023-02-01T08:38:08;101154.22;;;6.17;72.67
49935;BME280;39898;41.762;26.200;2023-02-01T08:40:35;101153.44;;;6.25;70.90
49935;BME280;39898;41.762;26.200;2023-02-01T08:43:01;101158.81;;;6.43;71.30
49935;BME280;39898;41.762;26.200;2023-02-01T08:45:28;101146.69;;;6.51;71.26
49935;BME280;39898;41.762;26.200;2023-02-01T08:47:58;101152.97;;;6.76;70.62
49935;BME280;39898;41.762;26.200;2023-02-01T08:50:25;101145.19;;;6.83;67.60
49935;BME280;39898;41.762;26.200;2023-02-01T08:52:52;101138.25;;;6.91;66.72
49935;BME280;39898;41.762;26.200;2023-02-01T08:55:19;101138.28;;;6.97;68.56
49935;BME280;39898;41.762;26.200;2023-02-01T08:57:45;101134.91;;;7.12;68.24
49935;BME280;39898;41.762;26.200;2023-02-01T09:00:13;101134.13;;;7.34;67.30
49935;BME280;39898;41.762;26.200;2023-02-01T09:02:41;101131.50;;;7.29;65.94
49935;BME280;39898;41.762;26.200;2023-02-01T09:05:08;101120.25;;;7.47;65.64
49935;BME280;39898;41.762;26.200;2023-02-01T09:07:35;101124.66;;;7.62;63.13
49935;BME280;39898;41.762;26.200;2023-02-01T09:10:02;101122.03;;;7.62;61.34
49935;BME280;39898;41.762;26.200;2023-02-01T09:12:30;101123.75;;;7.60;62.16
49935;BME280;39898;41.762;26.200;2023-02-01T09:14:57;101124.66;;;7.60;61.06
49935;BME280;39898;41.762;26.200;2023-02-01T09:17:26;101116.81;;;7.71;59.77
49935;BME280;39898;41.762;26.200;2023-02-01T09:19:53;101127.31;;;7.90;58.90
49935;BME280;39898;41.762;26.200;2023-02-01T09:22:20;101117.72;;;7.95;59.65
49935;BME280;39898;41.762;26.200;2023-02-01T09:24:47;101113.38;;;8.11;57.60
49935;BME280;39898;41.762;26.200;2023-02-01T09:27:14;101112.53;;;8.09;57.79
49935;BME280;39898;41.762;26.200;2023-02-01T09:29:40;101118.63;;;7.97;57.94
49935;BME280;39898;41.762;26.200;2023-02-01T09:32:07;101117.78;;;8.22;57.78
49935;BME280;39898;41.762;26.200;2023-02-01T09:34:34;101116.88;;;7.93;55.96
49935;BME280;39898;41.762;26.200;2023-02-01T09:37:01;101110.72;;;7.67;54.96
49935;BME280;39898;41.762;26.200;2023-02-01T09:39:29;101121.22;;;7.93;57.01
49935;BME280;39898;41.762;26.200;2023-02-01T09:47:13;101107.28;;;7.98;54.57
49935;BME280;39898;41.762;26.200;2023-02-01T09:55:13;101095.09;;;8.54;55.78
49935;BME280;39898;41.762;26.200;2023-02-01T10:00:17;101079.38;;;8.62;53.11
49935;BME280;39898;41.762;26.200;2023-02-01T10:02:45;101071.44;;;8.90;53.65
49935;BME280;39898;41.762;26.200;2023-02-01T10:05:12;101070.59;;;8.81;52.19
49935;BME280;39898;41.762;26.200;2023-02-01T10:08:24;101067.19;;;8.32;51.57
49935;BME280;39898;41.762;26.200;2023-02-01T10:10:41;101064.56;;;8.44;53.42
49935;BME280;39898;41.762;26.200;2023-02-01T10:15:58;101055.75;;;8.78;52.21
49935;BME280;39898;41.762;26.200;2023-02-01T10:26:20;101032.91;;;9.13;48.82
49935;BME280;39898;41.762;26.200;2023-02-01T10:28:59;101028.63;;;9.02;50.41
49935;BME280;39898;41.762;26.200;2023-02-01T10:31:26;101027.00;;;8.68;49.75
49935;BME280;39898;41.762;26.200;2023-02-01T10:33:56;101027.75;;;8.95;51.42
49935;BME280;39898;41.762;26.200;2023-02-01T10:36:35;101032.03;;;9.13;51.83
49935;BME280;39898;41.762;26.200;2023-02-01T10:39:03;101031.84;;;9.50;49.78
49935;BME280;39898;41.762;26.200;2023-02-01T10:41:34;101027.50;;;9.45;48.99
49935;BME280;39898;41.762;26.200;2023-02-01T10:44:03;101037.13;;;9.43;49.80
49935;BME280;39898;41.762;26.200;2023-02-01T10:46:30;101031.94;;;9.34;49.11
49935;BME280;39898;41.762;26.200;2023-02-01T10:48:58;101021.38;;;9.46;49.55
49935;BME280;39898;41.762;26.200;2023-02-01T10:51:49;101018.69;;;9.58;50.58
49935;BME280;39898;41.762;26.200;2023-02-01T10:54:17;101019.44;;;9.70;48.26
49935;BME280;39898;41.762;26.200;2023-02-01T10:56:47;101015.88;;;9.79;48.73
49935;BME280;39898;41.762;26.200;2023-02-01T10:59:18;101008.06;;;9.73;48.44
49935;BME280;39898;41.762;26.200;2023-02-01T11:01:46;101006.31;;;9.76;48.42
49935;BME280;39898;41.762;26.200;2023-02-01T11:04:20;100997.53;;;9.77;49.33
49935;BME280;39898;41.762;26.200;2023-02-01T11:06:54;100992.13;;;9.99;48.68
49935;BME280;39898;41.762;26.200;2023-02-01T11:09:31;100997.44;;;9.93;49.18
49935;BME280;39898;41.762;26.200;2023-02-01T11:11:58;100992.25;;;9.82;48.33
49935;BME280;39898;41.762;26.200;2023-02-01T11:14:27;100986.97;;;9.90;47.86
49935;BME280;39898;41.762;26.200;2023-02-01T11:16:54;100982.38;;;10.17;48.18
49935;BME280;39898;41.762;26.200;2023-02-01T11:19:21;100974.50;;;10.17;47.91
49935;BME280;39898;41.762;26.200;2023-02-01T11:21:51;100968.47;;;10.03;48.67
49935;BME280;39898;41.762;26.200;2023-02-01T11:24:40;100973.19;;;9.63;47.35
49935;BME280;39898;41.762;26.200;2023-02-01T11:27:11;100966.16;;;9.71;48.39
49935;BME280;39898;41.762;26.200;2023-02-01T11:29:51;100961.59;;;9.92;48.96
49935;BME280;39898;41.762;26.200;2023-02-01T11:32:19;100970.56;;;9.65;48.57
49935;BME280;39898;41.762;26.200;2023-02-01T11:34:51;100966.16;;;9.71;48.46
49935;BME280;39898;41.762;26.200;2023-02-01T11:37:20;100971.22;;;9.90;48.81
49935;BME280;39898;41.762;26.200;2023-02-01T11:39:53;100967.00;;;9.70;49.90
49935;BME280;39898;41.762;26.200;2023-02-01T11:42:20;100967.97;;;9.60;51.13
49935;BME280;39898;41.762;26.200;2023-02-01T11:44:47;100967.81;;;9.82;50.38
49935;BME280;39898;41.762;26.200;2023-02-01T11:47:24;100958.81;;;10.05;49.07
49935;BME280;39898;41.762;26.200;2023-02-01T11:49:52;100952.63;;;10.17;47.32
49935;BME280;39898;41.762;26.200;2023-02-01T11:54:53;100951.72;;;10.16;47.29
49935;BME280;39898;41.762;26.200;2023-02-01T11:57:28;100941.88;;;10.38;49.91
49935;BME280;39898;41.762;26.200;2023-02-01T12:07:42;100928.53;;;10.56;48.07
49935;BME280;39898;41.762;26.200;2023-02-01T12:15:39;100912.81;;;10.54;46.79
49935;BME280;39898;41.762;26.200;2023-02-01T12:26:01;100900.94;;;10.23;46.03
49935;BME280;39898;41.762;26.200;2023-02-01T12:31:11;100890.91;;;10.55;46.18
49935;BME280;39898;41.762;26.200;2023-02-01T12:41:57;100880.34;;;10.60;45.98
49935;BME280;39898;41.762;26.200;2023-02-01T12:46:52;100875.19;;;10.52;46.09
49935;BME280;39898;41.762;26.200;2023-02-01T12:49:27;100874.13;;;10.65;46.35
49935;BME280;39898;41.762;26.200;2023-02-01T12:51:58;100875.28;;;10.48;46.30
49935;BME280;39898;41.762;26.200;2023-02-01T12:54:35;100868.16;;;10.54;47.68
49935;BME280;39898;41.762;26.200;2023-02-01T12:57:11;100870.16;;;10.37;46.96
49935;BME280;39898;41.762;26.200;2023-02-01T13:00:22;100872.88;;;10.28;46.48
49935;BME280;39898;41.762;26.200;2023-02-01T13:03:03;100861.50;;;10.28;47.27
49935;BME280;39898;41.762;26.200;2023-02-01T13:05:22;100851.78;;;10.36;47.56
49935;BME280;39898;41.762;26.200;2023-02-01T13:07:52;100859.69;;;10.33;47.68
49935;BME280;39898;41.762;26.200;2023-02-01T13:10:32;100864.38;;;10.05;47.30
49935;BME280;39898;41.762;26.200;2023-02-01T13:13:10;100854.91;;;9.89;49.04
49935;BME280;39898;41.762;26.200;2023-02-01T13:15:42;100858.25;;;10.08;48.23
49935;BME280;39898;41.762;26.200;2023-02-01T13:18:13;100859.84;;;10.19;49.26
49935;BME280;39898;41.762;26.200;2023-02-01T13:23:24;100846.53;;;10.37;47.81
49935;BME280;39898;41.762;26.200;2023-02-01T13:25:52;100852.44;;;10.53;47.61
49935;BME280;39898;41.762;26.200;2023-02-01T13:28:29;100843.34;;;10.76;46.94
49935;BME280;39898;41.762;26.200;2023-02-01T13:31:09;100859.84;;;10.86;47.58
49935;BME280;39898;41.762;26.200;2023-02-01T13:39:12;100851.00;;;10.90;45.95
49935;BME280;39898;41.762;26.200;2023-02-01T13:41:52;100848.22;;;11.00;45.36
49935;BME280;39898;41.762;26.200;2023-02-01T13:44:21;100854.19;;;11.11;47.54
49935;BME280;39898;41.762;26.200;2023-02-01T13:46:50;100843.00;;;10.99;46.84
49935;BME280;39898;41.762;26.200;2023-02-01T13:49:25;100842.25;;;10.91;48.07
49935;BME280;39898;41.762;26.200;2023-02-01T13:51:53;100846.03;;;10.73;48.20
49935;BME280;39898;41.762;26.200;2023-02-01T13:56:50;100855.59;;;10.77;48.42
49935;BME280;39898;41.762;26.200;2023-02-01T14:04:50;100854.06;;;10.60;48.19
49935;BME280;39898;41.762;26.200;2023-02-01T14:07:21;100854.97;;;10.59;47.34
49935;BME280;39898;41.762;26.200;2023-02-01T14:09:48;100852.28;;;10.65;48.01
49935;BME280;39898;41.762;26.200;2023-02-01T14:15:20;100853.97;;;10.69;48.25
49935;BME280;39898;41.762;26.200;2023-02-01T14:17:49;100867.25;;;10.57;48.05
49935;BME280;39898;41.762;26.200;2023-02-01T14:23:04;100853.38;;;10.47;49.24
49935;BME280;39898;41.762;26.200;2023-02-01T14:25:33;100856.19;;;10.32;48.67
49935;BME280;39898;41.762;26.200;2023-02-01T14:28:00;100858.97;;;10.22;49.49
49935;BME280;39898;41.762;26.200;2023-02-01T14:30:27;100862.50;;;10.16;50.16
49935;BME280;39898;41.762;26.200;2023-02-01T14:32:54;100864.34;;;10.10;50.44
49935;BME280;39898;41.762;26.200;2023-02-01T14:35:21;100867.03;;;9.99;50.26
49935;BME280;39898;41.762;26.200;2023-02-01T14:37:52;100867.91;;;10.01;50.35
49935;BME280;39898;41.762;26.200;2023-02-01T14:40:22;100865.38;;;9.94;51.53
49935;BME280;39898;41.762;26.200;2023-02-01T14:42:50;100861.91;;;9.93;51.11
49935;BME280;39898;41.762;26.200;2023-02-01T14:47:46;100881.19;;;9.84;51.97
49935;BME280;39898;41.762;26.200;2023-02-01T14:52:44;100876.13;;;9.69;51.06
49935;BME280;39898;41.762;26.200;2023-02-01T14:55:14;100864.78;;;9.64;52.15
49935;BME280;39898;41.762;26.200;2023-02-01T14:57:43;100871.81;;;9.64;51.66
49935;BME280;39898;41.762;26.200;2023-02-01T15:00:19;100875.28;;;9.63;52.87